TAF KLWB
KLWB 270527Z 2706/2806 30007KT P6SM SCT025 FM271700 26007KT P6SM SCT100 FM272300 VRB03KT P6SM BKN100=
METAR KLWB
WC KLWB
WS KLWB
WV KLWB